Time;durP1;ratioP1;P1;durP2;ratioP2;P2;SDS_P1;SDS_P2;PMS_P1;PMS_P2;Temp;Humidity;BMP_temperature;BMP_pressure;BME280_temperature;BME280_humidity;BME280_pressure;Samples;Min_cycle;Max_cycle;Signal;HPM_P1;HPM_P2
2022/03/17 00:00:48;;;;;;;36.50;14.05;;;3.50;87.20;;;;;;4205971;28;20044;-76
2022/03/17 00:02:48;;;;;;;32.40;13.40;;;3.50;87.30;;;;;;4193889;28;20043;-75
2022/03/17 00:04:50;;;;;;;37.28;14.35;;;3.50;87.30;;;;;;4209254;28;20047;-76
2022/03/17 00:06:51;;;;;;;36.45;14.60;;;3.40;87.20;;;;;;4191449;28;20016;-76
2022/03/17 00:08:51;;;;;;;32.95;14.00;;;3.40;87.20;;;;;;4193871;28;20160;-76
2022/03/17 00:10:52;;;;;;;35.83;13.50;;;3.50;87.20;;;;;;4211563;28;20023;-76
2022/03/17 00:12:53;;;;;;;33.33;13.93;;;3.50;87.20;;;;;;4206397;28;20082;-75
2022/03/17 00:14:54;;;;;;;35.83;14.45;;;3.50;87.20;;;;;;4190806;28;20052;-75
2022/03/17 00:16:54;;;;;;;36.10;14.50;;;3.50;87.20;;;;;;4209622;28;20020;-75
2022/03/17 00:18:55;;;;;;;41.13;15.93;;;3.40;87.10;;;;;;4191355;28;20032;-76
2022/03/17 00:20:56;;;;;;;32.75;14.48;;;3.50;87.30;;;;;;4194511;28;20028;-75
2022/03/17 00:22:57;;;;;;;42.17;15.30;;;3.50;87.20;;;;;;4189095;28;20041;-75
2022/03/17 00:24:57;;;;;;;36.42;15.05;;;3.50;87.20;;;;;;4210527;28;20036;-75
2022/03/17 00:26:59;;;;;;;39.75;13.95;;;3.50;87.20;;;;;;4209974;28;20489;-76
2022/03/17 00:28:59;;;;;;;39.80;15.05;;;3.40;87.10;;;;;;4210334;28;20488;-76
2022/03/17 00:31:01;;;;;;;43.47;15.95;;;3.50;87.20;;;;;;4207878;28;20024;-76
2022/03/17 00:33:02;;;;;;;37.90;15.88;;;3.50;87.20;;;;;;4191422;28;20370;-75
2022/03/17 00:37:25;;;;;;;39.58;14.73;;;3.50;87.20;;;;;;4212264;28;20024;-76
2022/03/17 00:39:26;;;;;;;33.60;15.35;;;3.50;87.10;;;;;;4189778;28;20032;-76
2022/03/17 00:41:26;;;;;;;34.80;14.35;;;3.50;87.10;;;;;;4209250;28;20028;-75
2022/03/17 00:43:27;;;;;;;33.80;14.57;;;3.50;87.10;;;;;;4210631;28;20043;-75
2022/03/17 00:45:27;;;;;;;39.47;16.10;;;3.50;87.10;;;;;;4193795;28;20028;-75
2022/03/17 00:47:28;;;;;;;37.83;15.43;;;3.40;87.10;;;;;;4193294;28;20016;-75
2022/03/17 00:49:29;;;;;;;37.20;15.20;;;3.50;87.20;;;;;;4208646;28;20178;-75
2022/03/17 00:51:29;;;;;;;32.75;15.52;;;3.50;87.10;;;;;;4208088;28;20024;-75
2022/03/17 00:53:30;;;;;;;35.22;15.30;;;3.50;87.10;;;;;;4193180;28;20028;-75
2022/03/17 00:55:31;;;;;;;41.15;16.13;;;3.50;87.10;;;;;;4193967;28;20035;-75
2022/03/17 00:57:32;;;;;;;37.10;16.45;;;3.50;87.10;;;;;;4176778;28;20033;-75
2022/03/17 00:59:33;;;;;;;40.97;16.52;;;3.50;87.10;;;;;;4210015;28;20537;-75
2022/03/17 01:01:34;;;;;;;44.25;16.13;;;3.50;87.10;;;;;;4205285;28;20024;-75
2022/03/17 01:03:35;;;;;;;41.35;17.17;;;3.50;87.00;;;;;;4191817;28;20116;-76
2022/03/17 01:05:36;;;;;;;43.60;17.45;;;3.50;87.10;;;;;;4180836;28;20032;-75
2022/03/17 01:07:37;;;;;;;39.28;16.08;;;3.50;86.80;;;;;;4203325;28;20118;-75
2022/03/17 01:09:38;;;;;;;39.38;16.30;;;3.50;86.70;;;;;;4178273;28;20033;-75
2022/03/17 01:11:38;;;;;;;38.15;16.63;;;3.50;86.60;;;;;;4209031;28;20058;-75
2022/03/17 01:13:39;;;;;;;38.25;15.88;;;3.50;86.50;;;;;;4191758;28;20103;-75
2022/03/17 01:15:39;;;;;;;44.05;16.42;;;3.50;86.40;;;;;;4210842;28;20024;-75
2022/03/17 01:17:40;;;;;;;41.03;16.65;;;3.50;86.40;;;;;;4209890;28;20020;-75
2022/03/17 01:19:40;;;;;;;36.72;16.83;;;3.50;86.40;;;;;;4206884;28;20047;-75
2022/03/17 01:21:42;;;;;;;40.53;17.02;;;3.50;86.30;;;;;;4207240;28;20020;-76
2022/03/17 01:23:43;;;;;;;47.30;16.30;;;3.50;86.30;;;;;;4209480;28;20032;-75
2022/03/17 01:25:43;;;;;;;46.35;17.33;;;3.50;86.30;;;;;;4210231;28;20531;-75
2022/03/17 01:27:44;;;;;;;38.80;16.83;;;3.50;86.20;;;;;;4192252;28;20024;-75
2022/03/17 01:29:45;;;;;;;51.75;18.30;;;3.40;86.20;;;;;;4209776;28;20020;-75
2022/03/17 01:31:45;;;;;;;47.03;18.20;;;3.40;86.10;;;;;;4210898;28;20024;-76
2022/03/17 01:33:46;;;;;;;48.75;19.30;;;3.40;86.10;;;;;;4191337;28;20064;-76
2022/03/17 01:35:47;;;;;;;44.78;19.10;;;3.40;86.00;;;;;;4213453;28;20063;-76
2022/03/17 01:37:47;;;;;;;50.13;19.58;;;3.40;86.00;;;;;;4212759;28;20400;-76
2022/03/17 01:39:48;;;;;;;43.50;19.00;;;3.40;86.00;;;;;;4210546;28;20035;-75
2022/03/17 01:41:49;;;;;;;46.95;18.05;;;3.40;86.00;;;;;;4212743;28;20050;-75
2022/03/17 01:43:49;;;;;;;48.50;19.70;;;3.40;85.90;;;;;;4179955;28;20071;-76
2022/03/17 01:45:52;;;;;;;49.45;18.85;;;3.40;86.00;;;;;;4193108;28;20021;-76
2022/03/17 01:47:52;;;;;;;52.17;20.35;;;3.40;85.90;;;;;;4194777;28;20043;-75
2022/03/17 01:49:58;;;;;;;47.60;18.75;;;3.40;86.00;;;;;;4213097;28;20040;-76
2022/03/17 01:51:58;;;;;;;47.33;19.38;;;3.40;86.00;;;;;;4211329;28;20028;-76
2022/03/17 01:53:59;;;;;;;55.75;20.70;;;3.40;86.00;;;;;;4193076;28;20051;-75
2022/03/17 01:56:00;;;;;;;51.97;20.55;;;3.40;86.10;;;;;;4206205;28;20064;-75
2022/03/17 01:58:00;;;;;;;55.38;20.38;;;3.40;86.10;;;;;;4207763;28;20535;-75
2022/03/17 02:00:01;;;;;;;52.33;20.23;;;3.40;86.10;;;;;;4212217;28;20122;-75
2022/03/17 02:02:05;;;;;;;54.03;19.98;;;3.40;86.00;;;;;;4211773;28;20435;-75
2022/03/17 02:04:06;;;;;;;52.45;21.08;;;3.40;86.00;;;;;;4209230;28;20032;-76
2022/03/17 02:06:06;;;;;;;49.03;20.85;;;3.40;86.00;;;;;;4212009;28;20400;-75
2022/03/17 02:08:09;;;;;;;52.72;20.50;;;3.40;85.90;;;;;;4210336;28;20038;-75
2022/03/17 02:10:09;;;;;;;55.97;19.98;;;3.40;85.90;;;;;;4194274;28;20488;-75
2022/03/17 02:14:34;;;;;;;50.63;21.65;;;3.40;85.80;;;;;;4208661;28;20028;-76
2022/03/17 02:16:34;;;;;;;55.55;20.15;;;3.40;85.80;;;;;;4210193;28;20470;-76
2022/03/17 02:18:35;;;;;;;51.38;19.08;;;3.40;85.70;;;;;;4192932;28;20119;-76
2022/03/17 02:20:36;;;;;;;53.83;20.77;;;3.40;85.70;;;;;;4210131;28;20028;-76
2022/03/17 02:22:42;;;;;;;52.58;20.83;;;3.40;85.70;;;;;;4210335;28;20393;-76
2022/03/17 02:27:03;;;;;;;49.78;19.80;;;3.40;85.80;;;;;;4212187;28;20031;-76
2022/03/17 02:29:03;;;;;;;52.60;21.20;;;3.40;85.80;;;;;;4211032;28;20032;-76
2022/03/17 02:31:05;;;;;;;55.53;20.58;;;3.40;85.80;;;;;;4209208;28;20466;-76
2022/03/17 02:33:07;;;;;;;51.88;20.50;;;3.40;85.80;;;;;;4211570;28;20053;-75
2022/03/17 02:35:12;;;;;;;53.72;19.27;;;3.30;85.70;;;;;;4192676;28;20046;-75
2022/03/17 02:37:13;;;;;;;54.53;22.15;;;3.30;85.70;;;;;;4180670;28;20037;-76
2022/03/17 02:39:15;;;;;;;55.00;21.35;;;3.30;85.70;;;;;;4192399;28;20059;-75
2022/03/17 02:41:22;;;;;;;54.38;22.98;;;3.30;85.70;;;;;;4194701;28;20789;-76
2022/03/17 02:43:23;;;;;;;54.42;21.55;;;3.30;85.70;;;;;;4195647;28;20230;-75
2022/03/17 02:45:23;;;;;;;55.45;21.35;;;3.30;85.90;;;;;;4208619;28;20115;-75
2022/03/17 02:47:24;;;;;;;50.17;20.98;;;3.30;85.70;;;;;;4194834;28;20028;-76
2022/03/17 02:49:26;;;;;;;55.65;22.23;;;3.30;85.80;;;;;;4209847;28;20436;-75
2022/03/17 02:51:27;;;;;;;61.25;22.77;;;3.30;85.80;;;;;;4210998;28;20012;-75
2022/03/17 02:53:27;;;;;;;61.38;21.73;;;3.30;85.90;;;;;;4209912;28;20115;-75
2022/03/17 02:55:28;;;;;;;54.55;21.55;;;3.30;85.90;;;;;;4207764;28;20358;-75
2022/03/17 02:57:28;;;;;;;54.90;21.83;;;3.30;85.80;;;;;;4212562;28;20028;-75
2022/03/17 02:59:29;;;;;;;51.33;22.45;;;3.30;85.80;;;;;;4209094;28;20025;-76
2022/03/17 03:01:29;;;;;;;57.80;23.67;;;3.30;85.80;;;;;;4175870;28;20179;-75
2022/03/17 03:03:30;;;;;;;62.28;22.52;;;3.30;85.80;;;;;;4210178;28;20016;-75
2022/03/17 03:05:31;;;;;;;57.60;23.63;;;3.30;85.80;;;;;;4196537;28;20025;-75
2022/03/17 03:07:31;;;;;;;58.67;22.92;;;3.40;85.90;;;;;;4194673;28;20025;-75
2022/03/17 03:09:32;;;;;;;62.20;23.90;;;3.40;85.90;;;;;;4193431;28;20025;-75
2022/03/17 03:11:33;;;;;;;61.97;23.33;;;3.40;85.90;;;;;;4210450;28;20012;-75
2022/03/17 03:13:34;;;;;;;56.53;22.67;;;3.40;85.90;;;;;;4211771;28;20129;-75
2022/03/17 03:15:34;;;;;;;62.05;24.10;;;3.30;85.90;;;;;;4212963;28;20030;-75
2022/03/17 03:17:35;;;;;;;58.33;23.55;;;3.40;86.00;;;;;;4178995;28;20035;-75
2022/03/17 03:19:36;;;;;;;56.75;23.73;;;3.40;86.00;;;;;;4189936;28;22195;-75
2022/03/17 03:21:38;;;;;;;61.58;23.75;;;3.40;86.00;;;;;;4207450;28;20024;-75
2022/03/17 03:23:38;;;;;;;60.00;24.77;;;3.40;86.00;;;;;;4212143;28;20413;-75
2022/03/17 03:25:39;;;;;;;66.63;26.00;;;3.40;86.00;;;;;;4210889;28;20028;-75
2022/03/17 03:27:40;;;;;;;55.08;23.17;;;3.40;85.90;;;;;;4191930;28;20059;-75
2022/03/17 03:29:40;;;;;;;63.80;25.23;;;3.50;85.90;;;;;;4191933;28;20078;-75
2022/03/17 03:31:41;;;;;;;66.10;26.35;;;3.40;85.90;;;;;;4209198;28;20020;-75
2022/03/17 03:33:42;;;;;;;69.88;26.73;;;3.50;85.80;;;;;;4175820;28;20025;-74
2022/03/17 03:38:01;;;;;;;60.47;24.30;;;3.50;85.90;;;;;;4211256;28;20039;-75
2022/03/17 03:40:02;;;;;;;66.45;26.67;;;3.50;85.90;;;;;;4190458;28;20040;-76
2022/03/17 03:42:03;;;;;;;62.90;24.90;;;3.50;86.00;;;;;;4208750;28;20565;-75
2022/03/17 03:44:04;;;;;;;70.72;27.25;;;3.50;86.00;;;;;;4206861;28;20082;-75
2022/03/17 03:46:05;;;;;;;55.15;25.23;;;3.50;85.90;;;;;;4208632;28;20024;-75
2022/03/17 03:48:05;;;;;;;73.07;28.38;;;3.50;85.90;;;;;;4210526;28;20531;-75
2022/03/17 03:50:07;;;;;;;66.22;26.13;;;3.50;85.90;;;;;;4193272;28;20082;-76
2022/03/17 03:52:09;;;;;;;69.95;27.05;;;3.60;86.00;;;;;;4211424;28;20103;-76
2022/03/17 03:54:16;;;;;;;76.05;27.25;;;3.60;85.80;;;;;;4182003;28;20061;-76
2022/03/17 03:56:16;;;;;;;66.28;27.95;;;3.60;85.90;;;;;;4195247;28;20215;-75
2022/03/17 03:58:18;;;;;;;65.68;26.50;;;3.60;85.90;;;;;;4211275;28;20100;-76
2022/03/17 04:02:19;;;;;;;64.55;26.77;;;3.60;85.80;;;;;;4181510;28;20103;-76
2022/03/17 04:04:20;;;;;;;68.97;27.85;;;3.60;85.70;;;;;;4210589;28;20052;-75
2022/03/17 04:06:20;;;;;;;71.85;28.55;;;3.60;85.60;;;;;;4210026;28;20024;-75
2022/03/17 04:08:21;;;;;;;65.93;26.27;;;3.60;85.60;;;;;;4203905;28;20020;-75
2022/03/17 04:10:22;;;;;;;68.15;26.83;;;3.60;85.60;;;;;;4210072;28;20445;-75
2022/03/17 04:12:23;;;;;;;71.68;27.88;;;3.60;85.60;;;;;;4210471;28;20024;-75
2022/03/17 04:14:24;;;;;;;63.83;27.00;;;3.70;85.60;;;;;;4211146;28;20488;-75
2022/03/17 04:16:24;;;;;;;62.65;27.25;;;3.70;85.60;;;;;;4208710;28;20085;-75
2022/03/17 04:18:25;;;;;;;65.15;27.45;;;3.70;85.60;;;;;;4207210;28;20510;-76
2022/03/17 04:20:26;;;;;;;65.95;26.48;;;3.70;85.50;;;;;;4213326;28;20035;-76
2022/03/17 04:22:27;;;;;;;66.82;27.67;;;3.70;85.50;;;;;;4210053;28;20436;-75
2022/03/17 04:24:28;;;;;;;64.57;27.92;;;3.70;85.40;;;;;;4209671;28;20036;-75
2022/03/17 04:26:29;;;;;;;71.38;27.70;;;3.70;85.50;;;;;;4209641;28;20035;-75
2022/03/17 04:28:29;;;;;;;71.95;27.55;;;3.80;85.50;;;;;;4171785;28;20521;-75
2022/03/17 04:30:30;;;;;;;67.28;27.17;;;3.70;85.30;;;;;;4207328;28;20035;-76
2022/03/17 04:32:30;;;;;;;68.10;28.30;;;3.80;85.30;;;;;;4211208;28;20024;-76
2022/03/17 04:34:31;;;;;;;75.50;28.55;;;3.80;85.20;;;;;;4193411;28;20068;-76
2022/03/17 04:36:31;;;;;;;71.78;27.92;;;3.80;85.10;;;;;;4191535;28;20024;-75
2022/03/17 04:38:32;;;;;;;74.28;29.42;;;3.80;85.10;;;;;;4206161;28;20385;-75
2022/03/17 04:40:33;;;;;;;66.80;27.83;;;3.80;85.00;;;;;;4192235;28;20478;-75
2022/03/17 04:42:34;;;;;;;71.82;27.73;;;3.80;84.80;;;;;;4206321;28;20027;-75
2022/03/17 04:44:34;;;;;;;71.75;28.80;;;3.80;84.80;;;;;;4190009;28;21417;-75
2022/03/17 04:46:35;;;;;;;71.18;29.15;;;3.90;84.80;;;;;;4207760;28;20024;-75
2022/03/17 04:48:36;;;;;;;70.85;29.45;;;3.90;84.70;;;;;;4209408;28;20451;-75
2022/03/17 04:50:37;;;;;;;74.15;28.77;;;3.90;84.70;;;;;;4210828;28;20032;-76
2022/03/17 04:54:57;;;;;;;69.50;29.45;;;3.90;84.70;;;;;;4204812;28;20420;-75
2022/03/17 04:56:57;;;;;;;70.43;29.95;;;3.90;84.60;;;;;;4190233;28;20036;-76
2022/03/17 04:58:58;;;;;;;59.88;26.52;;;3.90;84.70;;;;;;4206518;28;20666;-75
2022/03/17 05:00:59;;;;;;;76.03;28.55;;;3.90;84.70;;;;;;4208247;28;20040;-75
2022/03/17 05:03:00;;;;;;;67.40;29.85;;;3.90;84.70;;;;;;4209366;28;20031;-76
2022/03/17 05:05:00;;;;;;;65.40;29.02;;;3.90;84.80;;;;;;4203314;28;20035;-76
2022/03/17 05:07:01;;;;;;;67.53;28.50;;;3.90;84.50;;;;;;4210668;28;20066;-76
2022/03/17 05:09:01;;;;;;;65.18;28.05;;;3.90;84.50;;;;;;4206035;28;20032;-78
2022/03/17 05:11:06;;;;;;;71.55;28.85;;;3.90;84.50;;;;;;4206024;28;20057;-76
2022/03/17 05:13:08;;;;;;;65.32;27.33;;;3.90;84.50;;;;;;4209326;28;20074;-75
2022/03/17 05:15:09;;;;;;;73.53;28.13;;;4.00;84.50;;;;;;4206946;28;20117;-75
2022/03/17 05:17:09;;;;;;;68.82;28.25;;;4.00;84.30;;;;;;4207436;28;20028;-76
2022/03/17 05:19:11;;;;;;;66.68;27.45;;;4.00;84.40;;;;;;4190987;28;20033;-76
2022/03/17 05:21:11;;;;;;;67.45;28.42;;;4.00;84.30;;;;;;4190425;28;20024;-76
2022/03/17 05:23:13;;;;;;;71.68;28.85;;;4.00;84.30;;;;;;4209499;28;20554;-76
2022/03/17 05:25:14;;;;;;;63.85;26.48;;;4.00;84.20;;;;;;4210770;28;20058;-76
2022/03/17 05:27:14;;;;;;;64.80;28.23;;;4.00;84.20;;;;;;4205929;28;20020;-75
2022/03/17 05:29:15;;;;;;;65.57;28.10;;;4.10;84.30;;;;;;4190899;28;20047;-76
2022/03/17 05:31:15;;;;;;;68.70;28.40;;;4.10;84.20;;;;;;4190421;28;20070;-75
2022/03/17 05:33:16;;;;;;;63.78;28.38;;;4.10;84.20;;;;;;4208056;28;20488;-75
2022/03/17 05:35:17;;;;;;;69.50;28.75;;;4.10;84.10;;;;;;4189523;28;20035;-76
2022/03/17 05:37:17;;;;;;;61.60;28.90;;;4.10;84.10;;;;;;4210372;28;20038;-76
2022/03/17 05:39:18;;;;;;;70.03;28.60;;;4.10;84.10;;;;;;4207047;28;20425;-76
2022/03/17 05:41:18;;;;;;;67.13;28.13;;;4.10;84.00;;;;;;4190559;28;20027;-75
2022/03/17 05:43:19;;;;;;;64.88;28.15;;;4.10;84.00;;;;;;4214415;28;20539;-76
2022/03/17 05:45:20;;;;;;;66.65;28.77;;;4.10;83.90;;;;;;4191192;28;20032;-76
2022/03/17 05:47:21;;;;;;;62.47;28.73;;;4.20;83.90;;;;;;4200480;28;20486;-76
2022/03/17 05:49:21;;;;;;;68.68;29.58;;;4.20;83.80;;;;;;4189809;28;20039;-76
2022/03/17 05:51:22;;;;;;;69.55;28.35;;;4.20;83.90;;;;;;4206613;28;20028;-76
2022/03/17 05:53:22;;;;;;;64.32;29.08;;;4.20;83.90;;;;;;4206773;28;20078;-75
2022/03/17 05:55:24;;;;;;;65.70;28.35;;;4.30;83.80;;;;;;4196878;28;20016;-76
2022/03/17 05:57:25;;;;;;;62.58;28.25;;;4.30;83.70;;;;;;4206898;28;20461;-76
2022/03/17 05:59:25;;;;;;;78.05;31.10;;;4.30;83.80;;;;;;4171148;28;20017;-76
2022/03/17 06:01:26;;;;;;;58.63;28.27;;;4.30;83.90;;;;;;4209366;28;20431;-76
2022/03/17 06:03:27;;;;;;;68.15;29.00;;;4.40;83.70;;;;;;4204255;28;20017;-76
2022/03/17 06:05:28;;;;;;;68.90;30.13;;;4.40;83.60;;;;;;4189605;28;21834;-76
2022/03/17 06:07:44;;;;;;;61.35;28.95;;;4.40;83.40;;;;;;4189672;28;20020;-76
2022/03/17 06:09:45;;;;;;;64.50;28.63;;;4.40;83.20;;;;;;4199438;28;20039;-76
2022/03/17 06:11:45;;;;;;;68.60;31.20;;;4.40;84.10;;;;;;4207333;28;20028;-76
2022/03/17 06:13:46;;;;;;;65.07;29.10;;;4.50;83.20;;;;;;4188740;28;20028;-76
2022/03/17 06:15:47;;;;;;;70.03;30.52;;;4.50;83.30;;;;;;4198837;28;20032;-76
2022/03/17 06:17:50;;;;;;;56.38;27.95;;;4.40;83.20;;;;;;4210098;28;20024;-76
2022/03/17 06:19:50;;;;;;;67.10;30.47;;;4.40;83.10;;;;;;4193459;28;20032;-76
2022/03/17 06:21:51;;;;;;;67.50;29.95;;;4.50;83.30;;;;;;4218720;28;20285;-76
2022/03/17 06:23:52;;;;;;;68.00;29.63;;;4.50;83.20;;;;;;4210396;28;20028;-76
2022/03/17 06:25:53;;;;;;;79.68;32.47;;;4.50;83.10;;;;;;4212652;28;20031;-76
2022/03/17 06:27:53;;;;;;;69.53;31.98;;;4.60;83.00;;;;;;4192915;28;20383;-76
2022/03/17 06:29:54;;;;;;;68.50;30.52;;;4.60;82.80;;;;;;4208791;28;20111;-76
2022/03/17 06:31:55;;;;;;;72.57;30.90;;;4.60;82.80;;;;;;4209792;28;20021;-76
2022/03/17 06:33:55;;;;;;;64.97;29.75;;;4.60;82.60;;;;;;4208778;28;20432;-76
2022/03/17 06:35:56;;;;;;;63.15;30.80;;;4.70;82.60;;;;;;4190886;28;20033;-76
2022/03/17 06:37:58;;;;;;;67.97;30.55;;;4.60;82.30;;;;;;4189813;28;20033;-76
2022/03/17 06:39:58;;;;;;;63.70;28.92;;;4.70;82.30;;;;;;4204896;28;20034;-76
2022/03/17 06:41:59;;;;;;;66.40;29.55;;;4.70;82.10;;;;;;4180614;28;20020;-76
2022/03/17 06:44:00;;;;;;;64.28;28.70;;;4.70;81.90;;;;;;4192231;28;20488;-76
2022/03/17 06:46:01;;;;;;;68.07;30.42;;;4.80;82.00;;;;;;4209610;28;20035;-76
2022/03/17 06:48:02;;;;;;;67.20;31.10;;;4.80;81.80;;;;;;4193222;28;20025;-76
2022/03/17 06:50:03;;;;;;;69.22;31.48;;;4.80;81.60;;;;;;4206093;28;20067;-76
2022/03/17 06:52:04;;;;;;;68.15;31.45;;;4.90;81.60;;;;;;4211229;28;20544;-76
2022/03/17 06:54:05;;;;;;;65.30;31.02;;;4.80;81.30;;;;;;4208668;28;20040;-76
2022/03/17 06:56:05;;;;;;;67.80;31.45;;;4.90;81.30;;;;;;4191748;28;20116;-76
2022/03/17 06:58:06;;;;;;;59.85;29.83;;;4.90;81.20;;;;;;4208717;28;20043;-76
2022/03/17 07:00:12;;;;;;;71.05;32.30;;;5.00;81.00;;;;;;4208672;28;20024;-76
2022/03/17 07:02:12;;;;;;;75.80;31.55;;;5.00;80.70;;;;;;4193442;28;20025;-76
2022/03/17 07:04:13;;;;;;;63.03;30.63;;;5.00;80.70;;;;;;4207973;28;20040;-76
2022/03/17 07:06:14;;;;;;;69.03;30.77;;;5.10;80.50;;;;;;4189437;28;20496;-76
2022/03/17 07:08:14;;;;;;;64.07;29.70;;;5.10;80.20;;;;;;4211080;28;20081;-76
2022/03/17 07:10:17;;;;;;;70.57;31.13;;;5.10;80.00;;;;;;4187328;28;20502;-76
2022/03/17 07:12:18;;;;;;;65.43;30.58;;;5.10;80.60;;;;;;4210794;28;20028;-76
2022/03/17 07:14:19;;;;;;;58.70;29.35;;;5.20;79.80;;;;;;4210504;28;20037;-76
2022/03/17 07:16:19;;;;;;;60.45;29.63;;;5.20;79.60;;;;;;4192796;28;20023;-76
2022/03/17 07:18:20;;;;;;;64.18;29.85;;;5.30;79.60;;;;;;4208184;28;20052;-76
2022/03/17 07:20:20;;;;;;;59.97;28.85;;;5.30;79.30;;;;;;4211100;28;20023;-76
2022/03/17 07:22:21;;;;;;;65.20;31.15;;;5.30;79.00;;;;;;4196613;28;20043;-76
2022/03/17 07:24:21;;;;;;;60.65;29.90;;;5.30;79.00;;;;;;4188572;28;20033;-76
2022/03/17 07:26:22;;;;;;;61.40;30.58;;;5.40;78.70;;;;;;4208121;28;20089;-76
2022/03/17 07:28:25;;;;;;;58.72;28.88;;;5.40;78.50;;;;;;4190775;28;20155;-76
2022/03/17 07:30:26;;;;;;;62.35;30.98;;;5.40;78.20;;;;;;4216296;28;20054;-76
2022/03/17 07:32:28;;;;;;;60.67;30.38;;;5.50;77.90;;;;;;4211326;28;20035;-76
2022/03/17 07:34:28;;;;;;;61.25;29.48;;;5.50;78.00;;;;;;4191344;28;20016;-76
2022/03/17 07:36:29;;;;;;;60.25;29.65;;;5.60;77.70;;;;;;4189372;28;20532;-76
2022/03/17 07:38:29;;;;;;;58.38;29.40;;;5.60;77.20;;;;;;4208961;28;20054;-76
2022/03/17 07:40:31;;;;;;;61.38;29.98;;;5.60;76.90;;;;;;4206039;28;20020;-76
2022/03/17 07:42:31;;;;;;;61.80;29.08;;;5.70;76.80;;;;;;4206069;28;20028;-76
2022/03/17 07:44:32;;;;;;;57.53;29.00;;;5.70;76.80;;;;;;4189625;28;20052;-76
2022/03/17 07:46:33;;;;;;;59.65;29.30;;;5.70;76.40;;;;;;4202532;28;20058;-76
2022/03/17 07:48:33;;;;;;;57.15;28.35;;;5.80;76.30;;;;;;4204544;28;20506;-76
2022/03/17 07:50:34;;;;;;;57.13;29.48;;;5.80;75.70;;;;;;4208964;28;20057;-76
2022/03/17 07:52:35;;;;;;;55.60;28.15;;;5.80;75.40;;;;;;4205951;28;20071;-76
2022/03/17 07:54:35;;;;;;;59.28;29.42;;;5.90;75.20;;;;;;4191763;28;20020;-76
2022/03/17 07:56:36;;;;;;;60.85;29.50;;;5.90;74.90;;;;;;4166464;28;20021;-76
2022/03/17 07:58:37;;;;;;;54.78;28.70;;;5.90;74.80;;;;;;4209565;28;20023;-76
2022/03/17 08:00:39;;;;;;;54.53;28.35;;;6.00;74.90;;;;;;4189089;28;20394;-77
2022/03/17 08:02:43;;;;;;;52.17;27.93;;;6.00;74.70;;;;;;4170640;28;20056;-76
2022/03/17 08:04:48;;;;;;;58.75;29.23;;;6.10;74.40;;;;;;4204909;28;20064;-76
2022/03/17 08:06:53;;;;;;;64.10;30.15;;;6.10;74.10;;;;;;4187292;28;20028;-76
2022/03/17 08:08:54;;;;;;;61.00;28.55;;;6.20;73.80;;;;;;4185709;28;20062;-76
2022/03/17 08:10:57;;;;;;;59.95;28.77;;;6.20;74.00;;;;;;4189040;28;20470;-76
2022/03/17 08:12:58;;;;;;;58.28;28.63;;;6.30;73.60;;;;;;4204605;28;20121;-76
2022/03/17 08:14:59;;;;;;;55.15;27.65;;;6.30;73.50;;;;;;4204821;28;20517;-76
2022/03/17 08:17:00;;;;;;;53.22;28.20;;;6.30;73.20;;;;;;4201624;28;20027;-76
2022/03/17 08:19:01;;;;;;;54.47;29.00;;;6.30;73.20;;;;;;4205603;28;20125;-76
2022/03/17 08:21:01;;;;;;;57.10;28.98;;;6.40;73.00;;;;;;4209328;28;20169;-76
2022/03/17 08:23:02;;;;;;;58.08;29.17;;;6.40;72.90;;;;;;4212756;28;20149;-76
2022/03/17 08:25:03;;;;;;;57.00;29.48;;;6.40;72.90;;;;;;4210853;28;20511;-75
2022/03/17 08:27:04;;;;;;;60.53;28.63;;;6.40;72.60;;;;;;4205937;28;20095;-76
2022/03/17 08:29:05;;;;;;;52.80;27.50;;;6.50;72.70;;;;;;4204924;28;20398;-76
2022/03/17 08:31:06;;;;;;;56.40;29.35;;;6.50;73.00;;;;;;4206043;28;20024;-76
2022/03/17 08:33:06;;;;;;;53.38;27.27;;;6.50;72.50;;;;;;4187997;28;20110;-75
2022/03/17 08:35:09;;;;;;;58.22;28.25;;;6.60;72.60;;;;;;4208480;28;20044;-75
2022/03/17 08:37:10;;;;;;;57.72;29.83;;;6.60;72.50;;;;;;4206984;28;20375;-77
2022/03/17 08:39:10;;;;;;;58.97;28.85;;;6.60;72.50;;;;;;4206071;28;20039;-75
2022/03/17 08:41:11;;;;;;;55.15;28.20;;;6.60;72.40;;;;;;4186288;28;20414;-76
2022/03/17 08:43:12;;;;;;;56.25;27.83;;;6.60;72.50;;;;;;4201066;28;20082;-75
2022/03/17 08:49:51;;;;;;;53.38;28.02;;;6.80;72.70;;;;;;4204451;28;20047;-75
2022/03/17 08:51:53;;;;;;;52.67;28.33;;;6.80;72.60;;;;;;4205934;28;20638;-76
2022/03/17 08:53:56;;;;;;;55.83;28.40;;;6.80;72.90;;;;;;4190323;28;20032;-75
2022/03/17 08:55:57;;;;;;;54.97;28.23;;;6.90;72.70;;;;;;4189269;28;20650;-76
2022/03/17 08:57:58;;;;;;;54.65;27.40;;;6.90;72.90;;;;;;4207726;28;20032;-75
2022/03/17 09:00:05;;;;;;;56.70;28.60;;;6.90;72.80;;;;;;4208867;28;20501;-75
2022/03/17 09:02:07;;;;;;;55.70;27.48;;;6.90;73.00;;;;;;4204796;28;20055;-75
2022/03/17 09:04:08;;;;;;;54.35;28.55;;;6.80;72.90;;;;;;4191043;28;20039;-75
2022/03/17 09:06:10;;;;;;;53.00;27.50;;;6.90;73.30;;;;;;4208250;28;20516;-75
2022/03/17 09:08:11;;;;;;;56.93;29.43;;;6.90;73.40;;;;;;4209639;28;20027;-75
2022/03/17 09:10:11;;;;;;;59.75;28.92;;;6.90;73.50;;;;;;4188786;28;20025;-75
2022/03/17 09:12:12;;;;;;;60.03;29.92;;;6.80;73.70;;;;;;4205390;28;20024;-75
2022/03/17 09:14:14;;;;;;;61.15;29.40;;;6.90;74.00;;;;;;4205083;28;20070;-75
2022/03/17 09:16:14;;;;;;;53.15;27.15;;;6.80;74.20;;;;;;4190888;28;20044;-74
2022/03/17 09:18:15;;;;;;;59.53;28.63;;;6.80;74.40;;;;;;4205506;28;20020;-75
2022/03/17 09:20:15;;;;;;;52.33;27.95;;;6.80;74.60;;;;;;4190018;28;20032;-75
2022/03/17 09:22:16;;;;;;;56.90;28.52;;;6.80;74.80;;;;;;4194151;28;20456;-75
2022/03/17 09:24:19;;;;;;;59.05;29.70;;;6.80;75.10;;;;;;4203784;28;20052;-75
2022/03/17 09:26:20;;;;;;;;;;;6.80;75.30;;;;;;4200522;28;20025;-75
2022/03/17 09:28:21;;;;;;;64.40;31.15;;;6.80;75.60;;;;;;4191458;28;20289;-75
2022/03/17 09:30:21;;;;;;;59.63;28.02;;;6.70;75.60;;;;;;4206919;28;20095;-75
2022/03/17 09:32:24;;;;;;;57.63;29.67;;;6.80;75.80;;;;;;4207680;28;20034;-75
2022/03/17 09:34:25;;;;;;;59.38;29.30;;;6.80;76.00;;;;;;4207157;28;20100;-75
2022/03/17 09:36:25;;;;;;;60.63;28.98;;;6.80;76.20;;;;;;4203883;28;20062;-74
2022/03/17 09:38:26;;;;;;;59.42;28.40;;;6.80;76.40;;;;;;4209111;28;20102;-75
2022/03/17 09:40:26;;;;;;;58.92;29.38;;;6.80;76.60;;;;;;4201949;28;20441;-75
2022/03/17 09:42:27;;;;;;;57.40;28.95;;;6.80;76.60;;;;;;4184919;28;20456;-75
2022/03/17 09:44:28;;;;;;;62.15;29.65;;;6.80;76.70;;;;;;4201985;28;20038;-75
2022/03/17 09:46:30;;;;;;;58.78;29.70;;;6.80;76.90;;;;;;4186671;28;20012;-75
2022/03/17 09:48:30;;;;;;;55.03;27.45;;;6.80;77.10;;;;;;4197738;28;20517;-75
2022/03/17 09:50:31;;;;;;;59.92;29.55;;;6.80;77.10;;;;;;4209105;28;20156;-75
2022/03/17 09:52:32;;;;;;;58.80;29.13;;;6.80;78.00;;;;;;4188884;28;20561;-75
2022/03/17 09:54:35;;;;;;;55.60;29.48;;;6.80;77.40;;;;;;4207816;28;20023;-75
2022/03/17 09:56:35;;;;;;;56.63;29.85;;;6.80;77.40;;;;;;4189550;28;20146;-75
2022/03/17 09:58:36;;;;;;;61.08;29.90;;;6.80;78.40;;;;;;4189873;28;20028;-75
2022/03/17 10:00:49;;;;;;;57.97;29.50;;;6.80;77.70;;;;;;4209846;28;20050;-75
2022/03/17 10:02:50;;;;;;;54.38;28.23;;;6.80;77.70;;;;;;4206242;28;20028;-75
2022/03/17 10:04:51;;;;;;;58.45;29.42;;;6.80;77.80;;;;;;4212633;28;20726;-75
2022/03/17 10:06:53;;;;;;;61.83;29.42;;;6.80;77.90;;;;;;4203954;28;20025;-75
2022/03/17 10:08:54;;;;;;;70.35;33.40;;;6.80;78.00;;;;;;4209675;28;20062;-75
2022/03/17 10:10:55;;;;;;;62.47;30.15;;;6.90;78.20;;;;;;4196449;28;20115;-75
2022/03/17 10:13:16;;;;;;;56.55;28.80;;;6.90;78.30;;;;;;4208386;28;20074;-75
2022/03/17 10:15:20;;;;;;;59.58;30.58;;;6.90;78.40;;;;;;4203676;28;20024;-74
2022/03/17 10:17:31;;;;;;;;;;;6.90;78.40;;;;;;4191183;28;20041;-75
2022/03/17 10:19:32;;;;;;;60.40;30.23;;;6.80;78.50;;;;;;4207867;28;19911;-75
2022/03/17 10:21:33;;;;;;;61.83;29.85;;;6.90;78.40;;;;;;4215901;28;20043;-74
2022/03/17 10:23:37;;;;;;;55.45;28.35;;;6.90;78.40;;;;;;4189253;28;20028;-75
2022/03/17 10:25:38;;;;;;;62.30;29.45;;;6.80;78.40;;;;;;4195976;28;20086;-75
2022/03/17 10:27:45;;;;;;;55.85;29.35;;;6.80;78.50;;;;;;4211952;28;20024;-75
2022/03/17 10:29:48;;;;;;;61.63;28.25;;;6.80;78.80;;;;;;4210517;28;20059;-75
2022/03/17 10:32:14;;;;;;;53.00;28.27;;;6.90;79.00;;;;;;4193959;28;20029;-75
2022/03/17 10:34:15;;;;;;;55.47;27.63;;;6.80;79.00;;;;;;4207932;28;20119;-77
2022/03/17 10:36:20;;;;;;;55.40;27.15;;;6.80;79.80;;;;;;4210582;28;20028;-77
2022/03/17 10:38:27;;;;;;;56.60;28.92;;;6.80;79.10;;;;;;4192040;28;20029;-75
2022/03/17 10:40:31;;;;;;;54.50;26.50;;;6.90;79.30;;;;;;4210362;28;20153;-78
2022/03/17 10:42:32;;;;;;;55.75;28.02;;;6.80;79.30;;;;;;4184711;28;20029;-75